createdAt,value
2022-12-13T00:00:19.337Z,19.90
2022-12-13T00:02:47.656Z,20.10
2022-12-13T00:05:16.261Z,20.00
2022-12-13T00:07:44.737Z,19.80
2022-12-13T00:10:14.667Z,19.80
2022-12-13T00:12:43.086Z,19.90
2022-12-13T00:15:12.602Z,19.90
2022-12-13T00:17:59.089Z,19.90
2022-12-13T00:20:27.440Z,19.80
2022-12-13T00:22:57.940Z,19.80
2022-12-13T00:25:27.665Z,20.00
2022-12-13T00:27:55.970Z,19.80
2022-12-13T00:30:24.309Z,19.90
2022-12-13T00:33:06.534Z,19.80
2022-12-13T00:35:34.841Z,19.70
2022-12-13T00:38:03.144Z,19.80
2022-12-13T00:40:32.800Z,19.90
2022-12-13T00:43:18.012Z,19.90
2022-12-13T00:45:46.360Z,19.90
2022-12-13T00:48:14.793Z,19.80
2022-12-13T00:50:43.157Z,19.90
2022-12-13T00:53:11.501Z,19.80
2022-12-13T00:55:43.893Z,20.10
2022-12-13T00:58:12.246Z,19.70
2022-12-13T01:00:40.577Z,19.70
2022-12-13T01:03:21.171Z,19.80
2022-12-13T01:06:14.321Z,20.10
2022-12-13T01:08:37.815Z,19.60
2022-12-13T01:11:10.056Z,19.70
2022-12-13T01:13:39.549Z,19.70
2022-12-13T01:16:09.305Z,19.70
2022-12-13T01:18:39.446Z,19.80
2022-12-13T01:21:08.969Z,19.60
2022-12-13T01:23:37.951Z,19.70
2022-12-13T01:26:09.592Z,19.70
2022-12-13T01:28:37.915Z,19.90
2022-12-13T01:31:09.858Z,19.60
2022-12-13T01:33:41.081Z,19.60
2022-12-13T01:36:10.650Z,19.60
2022-12-13T01:38:38.993Z,19.70
2022-12-13T01:41:16.877Z,19.50
2022-12-13T01:43:54.740Z,19.50
2022-12-13T01:46:23.564Z,19.60
2022-12-13T01:48:58.057Z,19.60
2022-12-13T01:51:28.859Z,19.50
2022-12-13T01:54:00.579Z,19.60
2022-12-13T01:56:32.890Z,19.40
2022-12-13T01:59:01.212Z,19.60
2022-12-13T02:01:29.639Z,19.40
2022-12-13T02:03:58.038Z,19.70
2022-12-13T02:06:29.683Z,19.30
2022-12-13T02:08:58.046Z,19.50
2022-12-13T02:11:26.605Z,19.40
2022-12-13T02:13:56.359Z,19.40
2022-12-13T02:16:31.316Z,19.40
2022-12-13T02:19:12.397Z,19.40
2022-12-13T02:21:41.745Z,19.40
2022-12-13T02:24:45.098Z,19.50
2022-12-13T02:27:17.801Z,19.30
2022-12-13T02:30:27.059Z,19.40
2022-12-13T02:33:04.973Z,19.30
2022-12-13T02:35:35.145Z,19.40
2022-12-13T02:38:06.009Z,19.30
2022-12-13T02:40:35.839Z,19.30
2022-12-13T02:43:08.020Z,19.70
2022-12-13T02:45:39.692Z,19.10
2022-12-13T02:48:08.601Z,19.30
2022-12-13T02:50:36.917Z,19.20
2022-12-13T02:53:05.271Z,19.20
2022-12-13T02:55:38.823Z,19.40
2022-12-13T02:58:13.165Z,19.10
2022-12-13T03:00:52.885Z,19.20
2022-12-13T03:03:28.063Z,19.10
2022-12-13T03:06:16.587Z,19.20
2022-12-13T03:08:50.073Z,19.10
2022-12-13T03:11:19.140Z,19.20
2022-12-13T03:13:49.564Z,19.10
2022-12-13T03:16:30.037Z,19.40
2022-12-13T03:19:00.233Z,19.10
2022-12-13T03:21:28.681Z,19.10
2022-12-13T03:23:56.985Z,19.00
2022-12-13T03:26:26.848Z,19.00
2022-12-13T03:28:55.311Z,18.90
2022-12-13T03:31:23.652Z,19.00
2022-12-13T03:33:53.385Z,19.00
2022-12-13T03:36:21.862Z,19.00
2022-12-13T03:38:52.219Z,19.00
2022-12-13T03:41:24.555Z,18.90
2022-12-13T03:43:52.867Z,18.70
2022-12-13T03:46:22.719Z,18.90
2022-12-13T03:48:51.084Z,18.40
2022-12-13T03:51:20.787Z,18.80
2022-12-13T03:53:49.120Z,18.90
2022-12-13T03:56:17.432Z,18.80
2022-12-13T03:58:45.797Z,18.80
2022-12-13T04:01:15.712Z,18.80
2022-12-13T04:03:44.926Z,19.00
2022-12-13T04:06:13.407Z,18.90
2022-12-13T04:08:52.938Z,18.60
2022-12-13T04:11:42.601Z,18.80
2022-12-13T04:14:11.595Z,18.80
2022-12-13T04:16:41.292Z,18.80
2022-12-13T04:19:09.642Z,18.90
2022-12-13T04:21:37.957Z,18.70
2022-12-13T04:24:08.059Z,18.80
2022-12-13T04:26:36.360Z,18.80
2022-12-13T04:29:04.713Z,18.80
2022-12-13T04:31:33.041Z,19.10
2022-12-13T04:34:01.424Z,18.70
2022-12-13T04:36:31.766Z,18.80
2022-12-13T04:39:02.117Z,18.80
2022-12-13T04:41:35.830Z,18.80
2022-12-13T04:44:04.280Z,18.80
2022-12-13T04:46:32.590Z,18.80
2022-12-13T04:49:00.935Z,18.20
2022-12-13T04:51:29.282Z,18.90
2022-12-13T04:53:57.593Z,18.80
2022-12-13T04:56:47.289Z,18.70
2022-12-13T04:59:16.164Z,18.70
2022-12-13T05:01:47.608Z,18.50
2022-12-13T05:04:17.861Z,18.80
2022-12-13T05:06:46.213Z,18.70
2022-12-13T05:09:14.566Z,18.80
2022-12-13T05:11:45.728Z,18.70
2022-12-13T05:14:23.654Z,18.70
2022-12-13T05:16:53.249Z,18.70
2022-12-13T05:19:21.639Z,18.50
2022-12-13T05:22:01.556Z,18.80
2022-12-13T05:24:31.586Z,18.60
2022-12-13T05:26:59.968Z,18.70
2022-12-13T05:29:29.761Z,18.70
2022-12-13T05:31:58.505Z,18.60
2022-12-13T05:34:26.952Z,18.40
2022-12-13T05:36:55.401Z,18.60
2022-12-13T05:39:28.170Z,18.60
2022-12-13T05:42:01.881Z,18.50
2022-12-13T05:44:33.003Z,18.50
2022-12-13T05:47:02.451Z,18.60
2022-12-13T05:49:32.097Z,18.60
2022-12-13T05:52:00.711Z,18.50
2022-12-13T05:54:33.469Z,18.50
2022-12-13T05:57:01.785Z,18.40
2022-12-13T05:59:30.132Z,18.50
2022-12-13T06:02:01.682Z,18.40
2022-12-13T06:04:30.149Z,18.40
2022-12-13T06:06:58.506Z,18.40
2022-12-13T06:09:26.872Z,18.40
2022-12-13T06:12:00.902Z,18.40
2022-12-13T06:14:29.783Z,18.40
2022-12-13T06:16:59.470Z,18.30
2022-12-13T06:19:28.537Z,18.50
2022-12-13T06:21:56.829Z,18.30
2022-12-13T06:24:25.242Z,18.30
2022-12-13T06:26:53.532Z,18.30
2022-12-13T06:29:25.547Z,18.30
2022-12-13T06:32:01.916Z,18.30
2022-12-13T06:34:33.988Z,18.30
2022-12-13T06:37:02.444Z,18.30
2022-12-13T06:39:32.910Z,18.20
2022-12-13T06:42:03.175Z,18.50
2022-12-13T06:44:33.282Z,18.30
2022-12-13T06:47:12.155Z,18.30
2022-12-13T06:49:44.150Z,18.30
2022-12-13T06:52:13.608Z,18.30
2022-12-13T06:54:42.224Z,18.30
2022-12-13T06:57:10.568Z,18.40
2022-12-13T06:59:39.112Z,18.50
2022-12-13T07:02:15.332Z,18.40
2022-12-13T07:04:55.034Z,18.50
2022-12-13T07:07:23.441Z,18.50
2022-12-13T07:09:51.891Z,18.70
2022-12-13T07:12:22.165Z,18.60
2022-12-13T07:14:59.673Z,18.60
2022-12-13T07:17:32.583Z,18.70
2022-12-13T07:20:04.486Z,18.60
2022-12-13T07:22:38.789Z,18.90
2022-12-13T07:25:28.053Z,18.80
2022-12-13T07:28:01.885Z,18.70
2022-12-13T07:30:32.698Z,18.80
2022-12-13T07:33:02.098Z,18.90
2022-12-13T07:35:36.835Z,18.80
2022-12-13T07:38:08.002Z,18.90
2022-12-13T07:40:37.012Z,18.90
2022-12-13T07:43:05.493Z,18.40
2022-12-13T07:45:33.890Z,18.80
2022-12-13T07:48:05.526Z,18.80
2022-12-13T07:50:36.772Z,19.00
2022-12-13T07:53:06.898Z,19.10
2022-12-13T07:55:35.312Z,18.70
2022-12-13T07:58:05.819Z,19.20
2022-12-13T08:00:34.139Z,19.20
2022-12-13T08:03:02.697Z,19.30
2022-12-13T08:05:39.063Z,19.20
2022-12-13T08:08:10.057Z,19.20
2022-12-13T08:10:39.104Z,19.20
2022-12-13T08:13:07.619Z,19.80
2022-12-13T08:15:35.981Z,19.30
2022-12-13T08:18:05.025Z,19.30
2022-12-13T08:20:33.391Z,19.40
2022-12-13T08:23:03.105Z,19.40
2022-12-13T08:25:35.781Z,19.50
2022-12-13T08:28:04.180Z,19.70
2022-12-13T08:30:33.276Z,19.90
2022-12-13T08:33:05.065Z,19.50
2022-12-13T08:35:35.007Z,19.40
2022-12-13T08:38:04.289Z,19.50
2022-12-13T08:40:36.340Z,19.50
2022-12-13T08:43:05.026Z,19.60
2022-12-13T08:45:34.328Z,19.60
2022-12-13T08:48:03.193Z,19.60
2022-12-13T08:50:31.658Z,19.70
2022-12-13T08:52:59.962Z,19.60
2022-12-13T08:55:31.672Z,19.60
2022-12-13T08:58:06.889Z,19.70
2022-12-13T09:00:36.329Z,19.80
2022-12-13T09:03:05.123Z,19.90
2022-12-13T09:05:35.087Z,19.90
2022-12-13T09:08:04.267Z,19.90
2022-12-13T09:10:59.302Z,19.80
2022-12-13T09:13:31.620Z,19.90
2022-12-13T09:16:01.603Z,20.10
2022-12-13T09:18:36.221Z,19.90
2022-12-13T09:21:12.774Z,20.20
2022-12-13T09:23:46.046Z,20.00
2022-12-13T09:26:15.681Z,20.10
2022-12-13T09:28:45.337Z,20.00
2022-12-13T09:31:14.649Z,20.40
2022-12-13T09:33:43.151Z,20.10
2022-12-13T09:36:12.853Z,20.90
2022-12-13T09:38:41.308Z,20.10
2022-12-13T09:41:19.697Z,20.50
2022-12-13T11:44:05.285Z,21.50
2022-12-13T11:46:38.444Z,20.90
2022-12-13T11:49:10.900Z,20.70
2022-12-13T11:51:44.899Z,20.60
2022-12-13T11:54:23.871Z,20.60
2022-12-13T12:04:48.657Z,20.10
2022-12-13T12:30:53.832Z,20.40
2022-12-13T12:33:26.021Z,20.40
2022-12-13T12:36:16.653Z,20.30
2022-12-13T12:39:09.535Z,20.20
2022-12-13T12:41:45.870Z,20.20
2022-12-13T12:44:20.932Z,20.20
2022-12-13T12:47:09.271Z,20.10
2022-12-13T12:52:35.793Z,20.00
2022-12-13T12:55:07.946Z,20.10
2022-12-13T12:57:40.640Z,20.00
2022-12-13T13:00:11.816Z,20.00
2022-12-13T13:02:42.617Z,20.00
2022-12-13T13:05:17.293Z,19.90
2022-12-13T13:07:51.483Z,19.90
2022-12-13T13:10:26.950Z,19.90
2022-12-13T13:13:12.490Z,19.90
2022-12-13T13:15:53.448Z,19.90
2022-12-13T13:18:44.406Z,19.90
2022-12-13T13:21:43.640Z,19.90
2022-12-13T13:24:26.361Z,19.80
2022-12-13T13:26:55.897Z,19.80
2022-12-13T13:29:43.618Z,19.90
2022-12-13T13:32:30.091Z,19.80
2022-12-13T13:35:32.097Z,19.80
2022-12-13T13:38:05.717Z,19.70
2022-12-13T13:40:35.898Z,19.70
2022-12-13T13:43:09.483Z,19.70
2022-12-13T13:45:54.952Z,19.70
2022-12-13T13:48:29.742Z,19.70
2022-12-13T13:51:38.787Z,19.70
2022-12-13T13:54:53.616Z,19.60
2022-12-13T13:58:09.314Z,19.70
2022-12-13T14:00:55.461Z,19.60
2022-12-13T14:03:57.033Z,19.60
2022-12-13T14:06:52.040Z,19.70
2022-12-13T14:09:49.181Z,19.70
2022-12-13T14:13:04.999Z,19.70
2022-12-13T14:16:20.377Z,19.60
2022-12-13T14:19:30.557Z,19.60
2022-12-13T14:22:17.482Z,19.70
2022-12-13T14:24:52.217Z,19.60
2022-12-13T14:27:27.602Z,19.60
2022-12-13T14:29:58.196Z,19.60
2022-12-13T14:32:27.839Z,19.50
2022-12-13T14:34:56.661Z,19.40
2022-12-13T14:37:30.395Z,19.40
2022-12-13T14:39:59.028Z,19.50
2022-12-13T14:42:29.791Z,19.50
2022-12-13T14:45:19.739Z,19.50
2022-12-13T14:47:48.078Z,19.40
2022-12-13T14:50:17.967Z,19.40
2022-12-13T14:52:49.034Z,19.40
2022-12-13T14:55:26.894Z,19.40
2022-12-13T14:57:55.743Z,19.40
2022-12-13T15:00:27.821Z,19.40
2022-12-13T15:02:57.360Z,19.30
2022-12-13T15:05:28.539Z,19.30
2022-12-13T15:07:57.844Z,19.30
2022-12-13T15:10:27.964Z,19.30
2022-12-13T15:12:56.279Z,19.30
2022-12-13T15:15:30.154Z,19.30
2022-12-13T15:20:40.021Z,19.20
2022-12-13T15:23:14.849Z,19.30
2022-12-13T15:25:43.177Z,19.30
